Time;durP1;ratioP1;P1;durP2;ratioP2;P2;SDS_P1;SDS_P2;PMS_P1;PMS_P2;Temp;Humidity;BMP_temperature;BMP_pressure;BME280_temperature;BME280_humidity;BME280_pressure;Samples;Min_cycle;Max_cycle;Signal;HPM_P1;HPM_P2
2021/04/26 00:00:10;;;;;;;6.60;0.63;;;3.20;99.90;;;;;;5093071;28;20177;-71
2021/04/26 00:02:36;;;;;;;3.25;0.55;;;3.20;99.90;;;;;;5092195;28;20530;-70
2021/04/26 00:05:04;;;;;;;5.13;0.50;;;3.20;99.90;;;;;;5097173;28;20181;-71
2021/04/26 00:07:30;;;;;;;;;;;3.20;99.90;;;;;;5097102;28;20396;-71
2021/04/26 00:09:56;;;;;;;;;;;3.10;99.90;;;;;;5095406;28;19955;-71
2021/04/26 00:12:22;;;;;;;;;;;3.10;99.90;;;;;;5099866;28;20275;-69
2021/04/26 00:14:48;;;;;;;;;;;3.00;99.90;;;;;;5093147;28;19919;-69
2021/04/26 00:17:14;;;;;;;;;;;3.00;99.90;;;;;;5101945;28;19912;-69
2021/04/26 00:19:40;;;;;;;;;;;3.10;99.90;;;;;;5093860;28;20002;-69
2021/04/26 00:22:06;;;;;;;;;;;3.00;99.90;;;;;;5090320;28;19946;-70
2021/04/26 00:24:31;;;;;;;;;;;3.00;99.90;;;;;;5096253;28;19944;-70
2021/04/26 00:26:57;;;;;;;;;;;3.00;99.90;;;;;;5097956;28;19912;-71
2021/04/26 00:29:23;;;;;;;;;;;3.00;99.90;;;;;;5092482;28;19908;-71
2021/04/26 00:31:49;;;;;;;;;;;3.00;99.90;;;;;;5102713;27;19912;-70
2021/04/26 00:34:15;;;;;;;;;;;3.00;99.90;;;;;;5093235;28;20310;-71
2021/04/26 00:36:41;;;;;;;;;;;3.00;99.90;;;;;;5103600;28;20383;-71
2021/04/26 00:39:07;;;;;;;;;;;2.90;99.90;;;;;;5091696;28;19912;-72
2021/04/26 00:41:33;;;;;;;;;;;2.90;99.90;;;;;;5092186;28;19912;-71
2021/04/26 00:43:59;;;;;;;;;;;2.80;99.90;;;;;;5096036;28;20311;-71
2021/04/26 00:46:25;;;;;;;;;;;2.70;99.90;;;;;;5092305;28;20349;-70
2021/04/26 00:48:51;;;;;;;;;;;2.50;99.90;;;;;;5092083;28;20269;-71
2021/04/26 00:51:17;;;;;;;;;;;2.40;99.90;;;;;;5100646;28;19912;-71
2021/04/26 00:53:43;;;;;;;;;;;2.30;99.90;;;;;;5096913;28;20004;-71
2021/04/26 00:56:09;;;;;;;;;;;2.30;99.90;;;;;;5093002;28;19943;-70
2021/04/26 00:58:35;;;;;;;;;;;2.20;99.90;;;;;;5091049;28;20277;-70
2021/04/26 01:01:01;;;;;;;;;;;2.20;99.90;;;;;;5092927;28;19912;-70
2021/04/26 01:03:27;;;;;;;;;;;2.10;99.90;;;;;;5096117;28;19912;-71
2021/04/26 01:05:52;;;;;;;;;;;2.10;99.90;;;;;;5091427;28;19908;-71
2021/04/26 01:08:18;;;;;;;;;;;2.00;99.90;;;;;;5092809;28;19908;-71
2021/04/26 01:10:44;;;;;;;;;;;2.00;99.90;;;;;;5095639;28;19915;-71
2021/04/26 01:13:29;;;;;;;;;;;1.90;99.90;;;;;;5090730;28;19912;-71
2021/04/26 01:16:14;;;;;;;;;;;1.90;99.90;;;;;;5090589;28;19912;-71
2021/04/26 01:19:01;;;;;;;;;;;1.90;99.90;;;;;;5096243;28;20280;-71
2021/04/26 01:21:29;;;;;;;;;;;1.80;99.90;;;;;;5101263;28;19915;-70
2021/04/26 01:24:08;;;;;;;;;;;1.80;99.90;;;;;;5093811;28;20254;-71
2021/04/26 01:26:40;;;;;;;;;;;1.80;99.90;;;;;;5094239;28;19912;-71
2021/04/26 01:29:07;;;;;;;;;;;1.70;99.90;;;;;;5096253;28;19908;-71
2021/04/26 01:31:39;;;;;;;;;;;1.60;99.90;;;;;;5095291;28;19919;-71
2021/04/26 01:34:05;;;;;;;;;;;1.70;99.90;;;;;;5092334;28;20132;-71
2021/04/26 01:36:31;;;;;;;;;;;1.70;99.90;;;;;;5090317;28;19912;-70
2021/04/26 01:38:57;;;;;;;;;;;1.70;99.90;;;;;;5075131;28;19908;-70
2021/04/26 01:41:23;;;;;;;;;;;1.60;99.90;;;;;;5096207;28;19949;-71
2021/04/26 01:43:50;;;;;;;;;;;1.50;99.90;;;;;;5095985;28;19908;-70
2021/04/26 01:46:16;;;;;;;;;;;1.50;99.90;;;;;;5095205;28;19912;-71
2021/04/26 01:48:42;;;;;;;;;;;1.50;99.90;;;;;;5096572;28;19908;-70
2021/04/26 01:51:09;;;;;;;;;;;1.50;99.90;;;;;;5096000;28;20365;-69
2021/04/26 01:53:35;;;;;;;;;;;1.40;99.90;;;;;;5101062;28;19916;-69
2021/04/26 01:56:01;;;;;;;;;;;1.40;99.90;;;;;;5093371;28;20040;-69
2021/04/26 01:58:27;;;;;;;;;;;1.40;99.90;;;;;;5097047;28;19919;-69
2021/04/26 02:00:53;;;;;;;;;;;1.30;99.90;;;;;;5096021;28;19920;-71
2021/04/26 02:03:20;;;;;;;;;;;1.30;99.90;;;;;;5102424;28;19915;-70
2021/04/26 02:05:46;;;;;;;;;;;1.30;99.90;;;;;;5101741;28;19912;-70
2021/04/26 02:08:12;;;;;;;;;;;1.30;99.90;;;;;;5098604;28;19911;-71
2021/04/26 02:10:38;;;;;;;;;;;1.20;99.90;;;;;;5098431;28;20273;-70
2021/04/26 02:13:05;;;;;;;;;;;1.20;99.90;;;;;;5094638;28;19927;-71
2021/04/26 02:15:31;;;;;;;;;;;1.20;99.90;;;;;;5103377;28;20360;-70
2021/04/26 02:17:57;;;;;;;;;;;1.20;99.90;;;;;;5096522;28;19962;-70
2021/04/26 02:20:23;;;;;;;;;;;1.30;99.90;;;;;;5098250;28;19908;-70
2021/04/26 02:22:49;;;;;;;;;;;1.30;99.90;;;;;;5100766;28;19955;-70
2021/04/26 02:25:15;;;;;;;;;;;1.30;99.90;;;;;;5098808;28;19908;-70
2021/04/26 02:27:41;;;;;;;;;;;1.20;99.90;;;;;;5094499;28;19908;-70
2021/04/26 02:30:07;;;;;;;;;;;1.20;99.90;;;;;;5101036;28;19908;-70
2021/04/26 02:32:35;;;;;;;;;;;1.20;99.90;;;;;;5096249;28;19919;-70
2021/04/26 02:35:01;;;;;;;;;;;1.10;99.90;;;;;;5091532;28;19924;-70
2021/04/26 02:37:32;;;;;;;;;;;1.10;99.90;;;;;;5107103;28;19920;-70
2021/04/26 02:40:04;;;;;;;;;;;1.10;99.90;;;;;;5097809;28;19908;-70
2021/04/26 02:42:30;;;;;;;;;;;1.00;99.90;;;;;;5103737;28;19919;-70
2021/04/26 02:44:56;;;;;;;;;;;0.80;99.90;;;;;;5102391;28;19912;-70
2021/04/26 02:47:22;;;;;;;;;;;0.80;99.90;;;;;;5095563;28;19923;-71
2021/04/26 02:49:48;;;;;;;;;;;0.80;99.90;;;;;;5097022;28;19923;-71
2021/04/26 02:52:14;;;;;;;;;;;0.70;99.90;;;;;;5100860;28;19908;-70
2021/04/26 02:54:40;;;;;;;;;;;0.80;99.90;;;;;;5100758;28;20372;-71
2021/04/26 02:57:07;;;;;;;;;;;0.70;99.90;;;;;;5097698;28;20376;-72
2021/04/26 02:59:33;;;;;;;;;;;0.80;99.90;;;;;;5098767;28;19915;-70
2021/04/26 03:01:59;;;;;;;;;;;0.80;99.90;;;;;;5095808;27;20006;-71
2021/04/26 03:04:24;;;;;;;;;;;0.90;99.90;;;;;;5100768;28;20375;-70
2021/04/26 03:06:51;;;;;;;;;;;0.90;99.90;;;;;;5093278;28;19973;-71
2021/04/26 03:09:17;;;;;;;;;;;1.00;99.90;;;;;;5103614;28;20391;-71
2021/04/26 03:11:43;;;;;;;;;;;1.00;99.90;;;;;;5096638;28;19912;-70
2021/04/26 03:14:09;;;;;;;;;;;1.00;99.90;;;;;;5095699;28;19927;-71
2021/04/26 03:16:35;;;;;;;;;;;1.10;99.90;;;;;;5096921;28;19914;-70
2021/04/26 03:19:01;;;;;;;;;;;1.20;99.90;;;;;;5098726;28;20372;-70
2021/04/26 03:21:27;;;;;;;;;;;1.20;99.90;;;;;;5096063;28;19915;-69
2021/04/26 03:23:55;;;;;;;;;;;1.20;99.90;;;;;;5098219;28;19912;-70
2021/04/26 03:26:21;;;;;;;;;;;1.10;99.90;;;;;;5094259;28;19927;-70
2021/04/26 03:28:47;;;;;;;;;;;1.00;99.90;;;;;;5084821;28;19916;-70
2021/04/26 03:31:13;;;;;;;;;;;1.00;99.90;;;;;;5093459;28;19919;-70
2021/04/26 03:33:39;;;;;;;;;;;1.00;99.90;;;;;;5094856;28;19916;-71
2021/04/26 03:36:05;;;;;;;;;;;1.00;99.90;;;;;;5093090;28;19922;-70
2021/04/26 03:38:31;;;;;;;;;;;0.90;99.90;;;;;;5099644;28;19912;-70
2021/04/26 03:41:00;;;;;;;;;;;0.90;99.90;;;;;;5100428;28;19912;-70
2021/04/26 03:43:26;;;;;;;;;;;0.90;99.90;;;;;;5093620;28;19919;-70
2021/04/26 03:45:55;;;;;;;;;;;0.90;99.90;;;;;;5094249;28;19915;-70
2021/04/26 03:48:21;;;;;;;;;;;0.80;99.90;;;;;;5093936;28;19904;-70
2021/04/26 03:50:47;;;;;;;;;;;0.70;99.90;;;;;;5093997;28;19999;-70
2021/04/26 03:53:12;;;;;;;;;;;0.60;99.90;;;;;;5091996;28;19916;-70
2021/04/26 03:55:38;;;;;;;;;;;0.60;99.90;;;;;;5096087;28;19912;-69
2021/04/26 03:58:06;;;;;;;;;;;0.50;99.90;;;;;;5095399;28;19957;-70
2021/04/26 04:00:32;;;;;;;;;;;0.50;99.90;;;;;;5093792;28;19916;-69
2021/04/26 04:02:58;;;;;;;;;;;0.60;99.90;;;;;;5094332;28;20370;-69
2021/04/26 04:05:24;;;;;;;;;;;0.70;99.90;;;;;;5093008;28;19916;-69
2021/04/26 04:07:50;;;;;;;;;;;0.80;99.90;;;;;;5094536;28;19919;-69
2021/04/26 04:10:16;;;;;;;;;;;0.90;99.90;;;;;;5093375;28;19915;-70
2021/04/26 04:12:42;;;;;;;;;;;1.00;99.90;;;;;;5092999;28;19908;-72
2021/04/26 04:15:08;;;;;;;;;;;1.00;99.90;;;;;;5096568;28;19978;-71
2021/04/26 04:17:34;;;;;;;;;;;1.10;99.90;;;;;;5093926;28;20020;-71
2021/04/26 04:20:00;;;;;;;;;;;1.20;99.90;;;;;;5095250;28;19908;-71
2021/04/26 04:22:26;;;;;;;;;;;1.30;99.90;;;;;;5095627;28;19935;-71
2021/04/26 04:24:52;;;;;;;;;;;1.30;99.90;;;;;;5094160;28;20604;-71
2021/04/26 04:27:18;;;;;;;;;;;1.40;99.90;;;;;;5097033;28;19914;-71
2021/04/26 04:29:44;;;;;;;8.18;1.27;;;1.50;99.90;;;;;;5098804;28;20205;-72
2021/04/26 04:32:10;;;;;;;10.25;1.38;;;1.50;99.90;;;;;;5097733;28;20177;-74
2021/04/26 04:34:36;;;;;;;;;;;1.60;99.90;;;;;;5093086;28;20055;-71
2021/04/26 04:37:02;;;;;;;11.30;1.25;;;1.70;99.90;;;;;;5095512;28;20633;-71
2021/04/26 04:39:28;;;;;;;4.57;1.02;;;1.70;99.90;;;;;;5095044;28;20185;-70
2021/04/26 04:41:55;;;;;;;4.75;1.30;;;1.80;99.90;;;;;;5098685;28;20174;-71
2021/04/26 04:44:21;;;;;;;7.80;0.73;;;1.80;99.90;;;;;;5095257;28;20192;-71
2021/04/26 04:46:47;;;;;;;2.83;0.67;;;1.90;99.90;;;;;;5094419;28;20384;-71
2021/04/26 04:49:13;;;;;;;20.65;1.40;;;2.00;99.90;;;;;;5091955;28;20380;-71
2021/04/26 04:51:40;;;;;;;1.33;0.52;;;2.10;99.90;;;;;;5093937;28;20193;-72
2021/04/26 04:54:06;;;;;;;2.20;0.40;;;2.10;99.90;;;;;;5094321;28;20553;-71
2021/04/26 04:56:32;;;;;;;2.33;0.50;;;2.20;99.90;;;;;;5096753;28;20199;-70
2021/04/26 04:58:58;;;;;;;19.98;1.02;;;2.30;99.90;;;;;;5097089;28;20177;-71
2021/04/26 05:01:24;;;;;;;3.47;0.50;;;2.30;99.90;;;;;;5095511;28;20185;-70
2021/04/26 05:03:50;;;;;;;5.35;0.60;;;2.30;99.90;;;;;;5102410;28;20195;-72
2021/04/26 05:06:17;;;;;;;6.25;0.60;;;2.40;99.90;;;;;;5100290;28;20181;-71
2021/04/26 05:08:43;;;;;;;4.55;0.60;;;2.40;99.90;;;;;;5094348;28;20189;-72
2021/04/26 05:11:09;;;;;;;3.67;0.57;;;2.50;99.90;;;;;;5093689;28;20197;-71
2021/04/26 05:13:35;;;;;;;4.95;0.80;;;2.50;99.90;;;;;;5095053;28;20215;-72
2021/04/26 05:16:01;;;;;;;5.43;0.80;;;2.60;99.90;;;;;;5095160;28;20185;-71
2021/04/26 05:18:27;;;;;;;3.58;0.60;;;2.70;99.90;;;;;;5091721;28;20204;-72
2021/04/26 05:20:53;;;;;;;5.07;0.70;;;2.70;99.90;;;;;;5093710;28;20181;-73
2021/04/26 05:23:19;;;;;;;4.15;0.80;;;2.80;99.90;;;;;;5093827;28;20173;-70
2021/04/26 05:25:48;;;;;;;;;;;2.90;99.90;;;;;;5093853;28;20394;-72
2021/04/26 05:28:14;;;;;;;2.88;0.30;;;3.00;99.90;;;;;;5071220;28;20632;-72
2021/04/26 05:30:41;;;;;;;6.15;1.58;;;3.10;99.90;;;;;;5071032;28;20390;-71
2021/04/26 05:33:07;;;;;;;6.13;1.10;;;3.10;99.90;;;;;;5084274;28;20228;-71
2021/04/26 05:35:33;;;;;;;6.97;1.48;;;3.10;99.90;;;;;;5091521;28;20224;-71
2021/04/26 05:38:13;;;;;;;4.20;0.85;;;3.20;99.90;;;;;;5092501;28;20189;-72
2021/04/26 05:40:39;;;;;;;3.38;1.13;;;3.30;99.90;;;;;;5092623;28;20157;-72
2021/04/26 05:43:07;;;;;;;2.65;0.60;;;3.30;99.90;;;;;;5091542;28;20165;-71
2021/04/26 05:45:34;;;;;;;5.40;1.02;;;3.40;99.90;;;;;;5074220;28;20189;-71
2021/04/26 05:48:00;;;;;;;9.98;2.15;;;3.40;99.90;;;;;;5092414;28;20180;-71
2021/04/26 05:50:26;;;;;;;11.55;2.45;;;3.50;99.90;;;;;;5092009;28;20181;-71
2021/04/26 05:52:54;;;;;;;3.30;0.95;;;3.60;99.90;;;;;;5090702;28;20193;-72
2021/04/26 05:55:21;;;;;;;4.00;0.80;;;3.70;99.90;;;;;;5090797;28;20224;-71
2021/04/26 05:57:48;;;;;;;6.28;1.13;;;3.70;99.90;;;;;;5091207;28;20173;-71
2021/04/26 06:00:14;;;;;;;5.50;1.02;;;3.80;99.90;;;;;;5091858;28;20165;-72
2021/04/26 06:02:41;;;;;;;2.45;0.60;;;3.90;99.90;;;;;;5092223;28;20664;-71
2021/04/26 06:05:08;;;;;;;4.07;0.63;;;4.00;99.90;;;;;;5092138;28;20178;-72
2021/04/26 06:07:35;;;;;;;2.50;0.50;;;4.10;99.90;;;;;;5074566;28;20491;-72
2021/04/26 06:10:01;;;;;;;1.85;0.90;;;4.20;99.90;;;;;;5091207;28;20173;-71
2021/04/26 06:12:27;;;;;;;4.35;0.63;;;4.20;99.90;;;;;;5090397;28;20169;-73
2021/04/26 06:14:53;;;;;;;4.38;0.47;;;4.30;99.90;;;;;;5092035;28;20213;-70
2021/04/26 06:17:20;;;;;;;3.83;0.50;;;4.30;99.90;;;;;;5091871;28;20633;-71
2021/04/26 06:19:46;;;;;;;7.35;1.15;;;4.50;99.90;;;;;;5092197;28;20629;-71
2021/04/26 06:22:12;;;;;;;4.50;0.60;;;4.60;99.90;;;;;;5090908;28;20598;-72
2021/04/26 06:24:38;;;;;;;5.43;0.50;;;4.60;99.90;;;;;;5091068;28;20522;-71
2021/04/26 06:27:04;;;;;;;3.75;0.68;;;4.70;99.90;;;;;;5092169;28;20591;-73
2021/04/26 06:29:31;;;;;;;1.77;0.52;;;4.80;99.90;;;;;;5091769;28;20177;-70
2021/04/26 06:31:57;;;;;;;4.95;0.60;;;4.80;99.80;;;;;;5091885;28;20178;-71
2021/04/26 06:34:23;;;;;;;0.85;0.30;;;4.90;99.80;;;;;;5091866;28;20221;-72
2021/04/26 06:36:49;;;;;;;4.88;0.60;;;5.00;99.90;;;;;;5098849;28;20189;-73
2021/04/26 06:39:15;;;;;;;3.65;0.40;;;5.30;99.90;;;;;;5098975;28;20180;-72
2021/04/26 06:41:41;;;;;;;1.00;0.30;;;5.40;99.40;;;;;;5100538;28;20177;-73
2021/04/26 06:44:07;;;;;;;7.53;0.30;;;5.70;99.20;;;;;;5098323;28;20196;-72
2021/04/26 06:46:34;;;;;;;0.93;0.35;;;5.90;98.80;;;;;;5102848;28;20186;-72
2021/04/26 06:49:00;;;;;;;8.57;0.60;;;6.00;98.50;;;;;;5099158;28;20196;-72
2021/04/26 06:51:26;;;;;;;8.63;0.30;;;6.10;97.60;;;;;;5095353;28;20508;-71
2021/04/26 06:53:53;;;;;;;1.27;0.22;;;5.90;96.60;;;;;;5077504;28;20555;-71
2021/04/26 06:56:19;;;;;;;1.10;0.30;;;6.00;97.10;;;;;;5093486;28;20180;-71
2021/04/26 06:58:45;;;;;;;2.05;0.38;;;6.00;97.00;;;;;;5075453;28;20177;-71
2021/04/26 07:01:11;;;;;;;2.25;0.30;;;6.00;95.90;;;;;;5087305;28;20185;-71
2021/04/26 07:03:37;;;;;;;0.30;0.20;;;6.10;95.30;;;;;;5076297;28;20177;-72
2021/04/26 07:06:04;;;;;;;4.43;0.20;;;6.20;93.50;;;;;;5094720;28;20177;-71
2021/04/26 07:08:30;;;;;;;0.43;0.20;;;6.20;94.10;;;;;;5094325;28;20182;-71
2021/04/26 07:10:56;;;;;;;0.73;0.32;;;6.30;92.80;;;;;;5092450;28;20243;-72
2021/04/26 07:13:22;;;;;;;0.93;0.30;;;6.30;93.40;;;;;;5076324;28;20173;-71
2021/04/26 07:15:48;;;;;;;3.40;0.68;;;6.50;93.20;;;;;;5094307;28;20224;-72
2021/04/26 07:18:14;;;;;;;8.55;0.52;;;6.60;92.30;;;;;;5094306;28;20540;-71
2021/04/26 07:20:41;;;;;;;3.33;0.35;;;6.60;92.10;;;;;;5092844;28;20189;-71
2021/04/26 07:23:07;;;;;;;0.68;0.40;;;6.80;93.40;;;;;;5092950;28;20173;-72
2021/04/26 07:25:33;;;;;;;1.33;0.40;;;7.00;92.50;;;;;;5094372;28;20196;-73
2021/04/26 07:27:59;;;;;;;6.43;0.65;;;7.10;91.10;;;;;;5094408;28;20181;-70
2021/04/26 07:30:25;;;;;;;5.88;0.50;;;7.00;90.40;;;;;;5093440;28;20188;-73
2021/04/26 07:32:51;;;;;;;1.00;0.40;;;7.20;89.40;;;;;;5093343;28;20693;-71
2021/04/26 07:35:18;;;;;;;1.85;0.43;;;7.50;89.50;;;;;;5093844;28;20574;-71
2021/04/26 07:37:44;;;;;;;6.50;0.45;;;7.70;90.10;;;;;;5094063;28;20189;-72
2021/04/26 07:40:12;;;;;;;2.60;0.70;;;7.80;89.20;;;;;;5092828;28;20181;-72
2021/04/26 07:42:38;;;;;;;3.55;0.77;;;7.60;86.50;;;;;;5075600;28;20185;-72
2021/04/26 07:45:05;;;;;;;8.32;1.52;;;7.90;88.30;;;;;;5094192;28;20181;-73
2021/04/26 07:47:32;;;;;;;6.57;0.60;;;8.00;88.50;;;;;;5093613;28;20525;-74
2021/04/26 07:49:58;;;;;;;6.68;0.60;;;8.20;84.80;;;;;;5093957;28;20544;-73
2021/04/26 07:52:24;;;;;;;2.35;0.50;;;8.60;88.10;;;;;;5092419;28;20665;-72
2021/04/26 07:54:50;;;;;;;1.60;0.40;;;9.30;84.20;;;;;;5093007;28;20208;-72
2021/04/26 07:57:16;;;;;;;3.05;0.60;;;10.10;78.50;;;;;;5093192;28;20181;-75
2021/04/26 07:59:42;;;;;;;3.55;0.60;;;10.10;71.80;;;;;;5093949;28;20185;-74
2021/04/26 08:02:08;;;;;;;3.22;0.60;;;10.10;71.30;;;;;;5094029;28;20174;-74
2021/04/26 08:04:34;;;;;;;4.28;0.50;;;10.40;71.00;;;;;;5091912;28;20192;-74
2021/04/26 08:07:01;;;;;;;6.28;0.88;;;10.10;67.80;;;;;;5093677;28;20169;-77
2021/04/26 08:09:27;;;;;;;3.08;0.60;;;9.80;67.80;;;;;;5093339;28;20185;-73
2021/04/26 08:11:53;;;;;;;5.90;0.38;;;10.10;70.10;;;;;;5093108;28;20173;-75
2021/04/26 08:14:19;;;;;;;1.98;0.45;;;10.10;66.80;;;;;;5092276;28;20201;-74
2021/04/26 08:16:45;;;;;;;1.13;0.30;;;10.30;65.20;;;;;;5093362;28;20192;-74
2021/04/26 08:19:12;;;;;;;1.95;0.60;;;10.70;66.80;;;;;;5093078;28;20182;-73
2021/04/26 08:21:39;;;;;;;1.83;0.30;;;11.70;66.10;;;;;;5091602;28;20189;-73
2021/04/26 08:24:06;;;;;;;1.65;0.30;;;11.50;62.90;;;;;;5093116;28;20653;-71
2021/04/26 08:26:32;;;;;;;1.35;0.20;;;11.60;62.30;;;;;;5091433;28;20181;-73
2021/04/26 08:28:58;;;;;;;0.95;0.30;;;10.80;60.90;;;;;;5093492;28;20192;-73
2021/04/26 08:31:24;;;;;;;3.33;0.30;;;10.80;60.30;;;;;;5092932;28;20173;-74
2021/04/26 08:33:50;;;;;;;4.57;0.30;;;10.40;60.60;;;;;;5092629;28;20228;-71
2021/04/26 08:36:16;;;;;;;2.40;0.43;;;10.80;62.40;;;;;;5091958;28;20201;-73
2021/04/26 08:38:42;;;;;;;0.88;0.30;;;11.20;60.70;;;;;;5092783;28;20177;-73
2021/04/26 08:41:16;;;;;;;1.33;0.22;;;10.80;59.30;;;;;;5092951;28;20177;-72
2021/04/26 08:43:43;;;;;;;2.63;0.57;;;10.90;62.50;;;;;;5049389;28;20177;-74
2021/04/26 08:46:09;;;;;;;5.22;0.40;;;11.60;62.50;;;;;;5088981;28;20174;-73
2021/04/26 08:48:35;;;;;;;2.53;0.43;;;11.90;59.40;;;;;;5088920;28;20184;-75
2021/04/26 08:51:02;;;;;;;1.40;0.30;;;12.20;58.30;;;;;;5092968;28;20535;-77
2021/04/26 08:53:29;;;;;;;3.42;0.40;;;11.70;56.50;;;;;;5092092;28;20193;-76
2021/04/26 08:55:55;;;;;;;1.63;0.30;;;11.60;58.30;;;;;;5091984;28;20189;-73
2021/04/26 08:58:21;;;;;;;2.75;0.40;;;11.60;57.20;;;;;;5091743;28;20187;-73
2021/04/26 09:00:47;;;;;;;4.68;0.30;;;12.10;57.90;;;;;;5091215;28;20185;-74
2021/04/26 09:03:14;;;;;;;2.45;0.47;;;12.60;57.60;;;;;;5091177;28;20184;-72
2021/04/26 09:05:40;;;;;;;1.30;0.30;;;11.00;55.30;;;;;;5091559;28;20177;-78
2021/04/26 09:08:12;;;;;;;1.10;0.40;;;10.60;56.40;;;;;;5091925;28;20528;-76
2021/04/26 09:10:41;;;;;;;2.95;0.40;;;10.10;59.20;;;;;;5056048;28;20185;-75
2021/04/26 09:13:33;;;;;;;1.63;0.50;;;11.00;61.80;;;;;;5091389;28;20554;-74
2021/04/26 09:16:01;;;;;;;1.42;0.28;;;12.50;57.00;;;;;;5090901;28;20193;-73
2021/04/26 09:18:57;;;;;;;0.85;0.35;;;12.50;55.70;;;;;;5073303;28;20188;-74
2021/04/26 09:21:28;;;;;;;1.05;0.30;;;13.50;54.30;;;;;;5092195;28;20548;-76
2021/04/26 09:24:14;;;;;;;5.60;0.40;;;13.10;53.10;;;;;;5090993;28;20626;-76
2021/04/26 09:26:41;;;;;;;1.35;0.30;;;13.40;52.50;;;;;;5092029;28;20172;-77
2021/04/26 09:29:10;;;;;;;6.97;0.40;;;13.00;51.50;;;;;;5088439;28;20193;-75
2021/04/26 09:31:36;;;;;;;2.05;0.20;;;11.60;52.50;;;;;;5090360;28;20184;-76
2021/04/26 09:34:02;;;;;;;1.27;0.40;;;11.80;53.60;;;;;;5091265;28;20217;-75
2021/04/26 09:36:33;;;;;;;6.38;0.60;;;11.80;50.50;;;;;;5091621;28;20208;-76
2021/04/26 09:39:02;;;;;;;0.70;0.30;;;13.80;53.20;;;;;;5092388;28;20173;-75
2021/04/26 09:41:30;;;;;;;0.88;0.35;;;13.90;50.30;;;;;;5090917;28;20177;-74
2021/04/26 09:43:59;;;;;;;2.85;0.30;;;14.70;48.00;;;;;;5066715;28;20602;-74
2021/04/26 09:46:42;;;;;;;1.20;0.30;;;15.10;43.30;;;;;;5091870;28;20174;-76
2021/04/26 09:49:16;;;;;;;1.35;0.30;;;15.50;44.80;;;;;;5083708;28;20657;-76
2021/04/26 09:51:44;;;;;;;2.67;0.40;;;15.30;43.90;;;;;;5090690;28;20169;-77
2021/04/26 09:54:10;;;;;;;2.50;0.20;;;15.70;43.00;;;;;;5089557;28;20181;-77
2021/04/26 09:56:44;;;;;;;5.15;0.35;;;16.90;46.00;;;;;;5092150;28;20196;-75
2021/04/26 09:59:12;;;;;;;2.60;0.40;;;15.70;43.90;;;;;;5091601;28;20162;-74
2021/04/26 10:01:38;;;;;;;1.25;0.20;;;13.30;47.60;;;;;;5089663;28;20181;-75
2021/04/26 10:04:05;;;;;;;1.75;0.63;;;11.30;50.00;;;;;;5091593;28;20177;-68
2021/04/26 10:06:31;;;;;;;1.67;0.40;;;10.30;53.80;;;;;;5090468;28;20494;-76
2021/04/26 10:08:59;;;;;;;2.10;0.40;;;10.30;56.60;;;;;;5091917;28;20184;-73
2021/04/26 10:11:27;;;;;;;3.25;0.35;;;9.80;58.10;;;;;;5091717;28;20173;-73
2021/04/26 10:14:06;;;;;;;0.40;0.30;;;9.20;61.50;;;;;;5074110;28;20189;-73
2021/04/26 10:16:47;;;;;;;1.88;0.40;;;8.80;63.50;;;;;;5095211;28;20212;-74
2021/04/26 10:19:14;;;;;;;47.17;2.63;;;8.30;64.30;;;;;;5089962;28;20169;-76
2021/04/26 10:21:41;;;;;;;0.45;0.30;;;8.50;64.40;;;;;;5091617;28;20177;-73
2021/04/26 10:24:18;;;;;;;0.75;0.20;;;8.50;64.30;;;;;;5080862;28;20176;-75
2021/04/26 10:26:49;;;;;;;2.55;0.32;;;8.40;63.00;;;;;;5103895;28;20180;-73
2021/04/26 10:29:19;;;;;;;1.17;0.30;;;8.80;60.50;;;;;;5101030;28;20176;-73
2021/04/26 10:32:12;;;;;;;1.58;0.30;;;10.20;60.30;;;;;;5094362;28;20177;-72
2021/04/26 10:34:42;;;;;;;0.52;0.10;;;11.20;56.20;;;;;;5101424;28;20214;-73
2021/04/26 10:37:17;;;;;;;2.17;0.30;;;11.00;56.70;;;;;;5090925;28;20197;-73
2021/04/26 10:40:10;;;;;;;2.35;0.30;;;10.80;57.00;;;;;;5093377;28;20191;-75
2021/04/26 10:42:42;;;;;;;1.45;0.40;;;10.10;55.90;;;;;;5093650;28;20521;-74
2021/04/26 10:45:20;;;;;;;0.73;0.40;;;9.90;59.20;;;;;;5094455;28;20669;-73
2021/04/26 10:47:54;;;;;;;16.98;5.13;;;11.10;59.10;;;;;;5094407;28;20172;-73
2021/04/26 10:50:21;;;;;;;8.75;0.80;;;12.10;56.10;;;;;;5094494;28;20633;-73
2021/04/26 10:52:50;;;;;;;2.25;0.22;;;12.50;55.80;;;;;;5093836;28;20181;-76
2021/04/26 10:55:20;;;;;;;15.07;1.17;;;13.60;52.40;;;;;;5076962;28;20220;-74
2021/04/26 10:57:58;;;;;;;3.15;0.40;;;12.80;51.70;;;;;;5096418;28;20185;-75
2021/04/26 11:00:29;;;;;;;0.85;0.30;;;12.50;51.20;;;;;;5096627;28;20561;-77
2021/04/26 11:03:11;;;;;;;1.88;0.38;;;13.10;50.10;;;;;;5098557;28;20177;-74
2021/04/26 11:05:38;;;;;;;1.42;0.30;;;12.60;50.80;;;;;;5094303;28;20525;-74
2021/04/26 11:08:17;;;;;;;0.47;0.28;;;13.70;51.20;;;;;;5093655;28;20527;-73
2021/04/26 11:10:52;;;;;;;3.80;0.40;;;14.70;50.30;;;;;;5098597;28;20160;-73
2021/04/26 11:13:30;;;;;;;0.90;0.35;;;13.70;51.80;;;;;;5101641;28;20177;-73
2021/04/26 11:16:06;;;;;;;2.33;0.57;;;12.80;53.40;;;;;;5101433;28;20219;-76
2021/04/26 11:18:39;;;;;;;1.95;0.50;;;12.00;53.80;;;;;;5099090;28;20625;-76
2021/04/26 11:21:06;;;;;;;1.35;0.30;;;10.80;54.20;;;;;;5099681;28;20181;-74
2021/04/26 11:23:47;;;;;;;1.48;0.50;;;10.00;55.90;;;;;;5074090;28;20166;-74
2021/04/26 11:26:23;;;;;;;1.38;0.50;;;10.30;57.80;;;;;;5086180;28;20646;-74
2021/04/26 11:29:04;;;;;;;1.55;0.20;;;10.50;58.10;;;;;;5092933;28;20161;-74
2021/04/26 11:31:43;;;;;;;0.75;0.30;;;11.50;56.30;;;;;;5093714;28;20541;-77
2021/04/26 11:34:19;;;;;;;1.48;0.30;;;11.90;54.00;;;;;;5100313;28;20207;-73
2021/04/26 11:37:00;;;;;;;1.92;0.55;;;12.50;54.90;;;;;;5083045;28;20205;-74
2021/04/26 11:39:27;;;;;;;1.00;0.22;;;13.00;52.50;;;;;;5100326;28;20173;-77
2021/04/26 11:41:54;;;;;;;2.25;0.28;;;11.80;50.80;;;;;;5084017;28;20529;-74
2021/04/26 11:44:27;;;;;;;2.60;0.35;;;11.40;53.60;;;;;;5093281;28;20177;-74
2021/04/26 11:46:54;;;;;;;1.83;0.40;;;11.30;53.40;;;;;;5097035;28;20187;-75
2021/04/26 11:49:23;;;;;;;4.57;0.40;;;10.80;53.30;;;;;;5093787;28;20173;-75
2021/04/26 11:51:51;;;;;;;1.38;0.30;;;10.70;54.90;;;;;;5092973;28;20518;-75
2021/04/26 11:54:19;;;;;;;0.88;0.30;;;10.30;55.80;;;;;;5087724;28;20183;-74
2021/04/26 11:57:04;;;;;;;2.70;0.28;;;10.10;55.60;;;;;;5075279;28;20193;-74
2021/04/26 11:59:30;;;;;;;2.38;0.30;;;10.60;55.90;;;;;;5093230;28;20177;-75
2021/04/26 12:01:56;;;;;;;1.05;0.30;;;11.20;54.60;;;;;;5100815;28;20178;-73
2021/04/26 12:04:37;;;;;;;1.00;0.40;;;11.30;53.90;;;;;;5096781;28;20173;-74
2021/04/26 12:07:04;;;;;;;1.17;0.38;;;11.60;53.70;;;;;;5079484;28;20185;-74
2021/04/26 12:09:31;;;;;;;2.60;0.30;;;11.60;53.50;;;;;;5095741;28;20170;-75
2021/04/26 12:12:02;;;;;;;2.15;0.50;;;12.00;54.40;;;;;;5094366;28;20176;-74
2021/04/26 12:14:28;;;;;;;0.38;0.20;;;11.10;54.40;;;;;;5079030;28;20184;-75
2021/04/26 12:17:34;;;;;;;1.00;0.28;;;10.80;54.80;;;;;;5092703;28;20665;-75
2021/04/26 12:20:00;;;;;;;3.60;0.20;;;10.80;55.40;;;;;;5070837;28;20177;-74
2021/04/26 12:22:32;;;;;;;1.23;0.32;;;10.70;55.60;;;;;;5052164;28;20190;-77
2021/04/26 12:24:58;;;;;;;2.03;0.40;;;10.40;54.70;;;;;;5069951;28;20192;-74
2021/04/26 12:27:25;;;;;;;1.25;0.22;;;10.40;56.70;;;;;;5074407;28;20189;-76
2021/04/26 12:29:52;;;;;;;2.60;0.30;;;10.50;56.00;;;;;;5090726;28;20169;-74
2021/04/26 12:32:20;;;;;;;0.60;0.25;;;10.70;56.00;;;;;;5090598;28;20644;-73
2021/04/26 12:35:00;;;;;;;0.93;0.30;;;10.30;55.50;;;;;;5095602;28;20220;-74
2021/04/26 12:37:30;;;;;;;3.30;0.30;;;10.80;57.00;;;;;;5096466;28;20188;-74
2021/04/26 12:40:12;;;;;;;0.50;0.30;;;10.30;55.40;;;;;;5098757;28;20176;-77
2021/04/26 12:42:39;;;;;;;0.85;0.25;;;10.80;56.00;;;;;;5101765;28;20824;-76
2021/04/26 12:45:14;;;;;;;7.82;0.63;;;11.00;55.50;;;;;;5090484;28;20188;-74
2021/04/26 12:47:51;;;;;;;2.95;0.30;;;11.30;54.80;;;;;;5090641;28;20621;-74
2021/04/26 12:50:29;;;;;;;0.20;0.20;;;11.20;54.10;;;;;;5089469;28;20523;-74
2021/04/26 12:53:15;;;;;;;5.07;0.50;;;11.40;52.30;;;;;;5091119;28;20160;-74
2021/04/26 12:55:48;;;;;;;2.35;0.40;;;11.20;55.10;;;;;;5090935;28;20602;-73
2021/04/26 12:58:26;;;;;;;0.93;0.30;;;12.00;55.00;;;;;;5092502;28;20165;-72
2021/04/26 13:00:56;;;;;;;2.83;0.40;;;12.20;53.20;;;;;;5090375;28;20544;-76
2021/04/26 13:03:29;;;;;;;3.58;0.30;;;11.30;53.20;;;;;;5090819;28;20165;-73
2021/04/26 13:05:57;;;;;;;1.83;0.30;;;11.00;54.40;;;;;;5089757;28;20176;-75
2021/04/26 13:08:24;;;;;;;3.85;0.43;;;10.80;54.80;;;;;;5089051;28;20169;-75
2021/04/26 13:10:51;;;;;;;2.15;0.40;;;11.00;55.00;;;;;;5088577;28;20181;-74
2021/04/26 13:13:17;;;;;;;2.70;0.40;;;11.20;54.60;;;;;;5088863;28;20165;-74
2021/04/26 13:15:43;;;;;;;2.33;0.30;;;11.10;54.70;;;;;;5090191;28;20204;-72
2021/04/26 13:18:14;;;;;;;0.57;0.32;;;11.10;55.80;;;;;;5090455;28;20613;-73
2021/04/26 13:20:42;;;;;;;3.05;0.30;;;11.00;55.70;;;;;;5090765;28;20166;-76
2021/04/26 13:23:13;;;;;;;1.10;0.55;;;11.10;55.30;;;;;;5073458;28;20548;-72
2021/04/26 13:25:39;;;;;;;2.20;0.28;;;11.50;55.60;;;;;;5091882;28;20173;-71
2021/04/26 13:28:05;;;;;;;1.13;0.40;;;11.70;54.50;;;;;;5091875;28;20190;-74